sensor_id;sensor_type;location;lat;lon;timestamp;temperature;humidity
3602;DHT22;1815;50.950;6.920;2023-06-10T00:00:40;23.20;59.50
3602;DHT22;1815;50.950;6.920;2023-06-10T00:03:09;23.10;59.60
3602;DHT22;1815;50.950;6.920;2023-06-10T00:05:36;23.10;59.80
3602;DHT22;1815;50.950;6.920;2023-06-10T00:08:05;23.00;60.80
3602;DHT22;1815;50.950;6.920;2023-06-10T00:10:38;23.00;60.30
3602;DHT22;1815;50.950;6.920;2023-06-10T00:13:05;22.90;61.30
3602;DHT22;1815;50.950;6.920;2023-06-10T00:15:34;22.80;60.90
3602;DHT22;1815;50.950;6.920;2023-06-10T00:18:01;22.80;61.10
3602;DHT22;1815;50.950;6.920;2023-06-10T00:20:27;22.80;62.00
3602;DHT22;1815;50.950;6.920;2023-06-10T00:22:53;22.80;61.80
3602;DHT22;1815;50.950;6.920;2023-06-10T00:25:19;22.70;62.00
3602;DHT22;1815;50.950;6.920;2023-06-10T00:27:45;22.70;62.10
3602;DHT22;1815;50.950;6.920;2023-06-10T00:30:11;22.70;62.30
3602;DHT22;1815;50.950;6.920;2023-06-10T00:32:37;22.70;62.90
3602;DHT22;1815;50.950;6.920;2023-06-10T00:35:04;22.70;63.10
3602;DHT22;1815;50.950;6.920;2023-06-10T00:37:31;22.60;63.30
3602;DHT22;1815;50.950;6.920;2023-06-10T00:39:57;22.60;63.40
3602;DHT22;1815;50.950;6.920;2023-06-10T00:42:24;22.60;63.80
3602;DHT22;1815;50.950;6.920;2023-06-10T00:44:51;22.50;64.00
3602;DHT22;1815;50.950;6.920;2023-06-10T00:47:17;22.50;64.30
3602;DHT22;1815;50.950;6.920;2023-06-10T00:49:44;22.50;64.90
3602;DHT22;1815;50.950;6.920;2023-06-10T00:52:10;22.40;65.10
3602;DHT22;1815;50.950;6.920;2023-06-10T00:54:37;22.40;65.40
3602;DHT22;1815;50.950;6.920;2023-06-10T00:57:04;22.30;65.70
3602;DHT22;1815;50.950;6.920;2023-06-10T00:59:31;22.30;65.90
3602;DHT22;1815;50.950;6.920;2023-06-10T01:01:57;22.30;66.20
3602;DHT22;1815;50.950;6.920;2023-06-10T01:04:23;22.20;66.60
3602;DHT22;1815;50.950;6.920;2023-06-10T01:07:10;22.20;67.10
3602;DHT22;1815;50.950;6.920;2023-06-10T01:09:45;22.20;68.30
3602;DHT22;1815;50.950;6.920;2023-06-10T01:14:44;22.10;68.40
3602;DHT22;1815;50.950;6.920;2023-06-10T01:17:17;22.10;68.60
3602;DHT22;1815;50.950;6.920;2023-06-10T01:19:44;22.00;69.20
3602;DHT22;1815;50.950;6.920;2023-06-10T01:22:10;22.00;69.80
3602;DHT22;1815;50.950;6.920;2023-06-10T01:24:37;21.90;70.30
3602;DHT22;1815;50.950;6.920;2023-06-10T01:27:11;21.90;71.00
3602;DHT22;1815;50.950;6.920;2023-06-10T01:29:45;21.80;71.70
3602;DHT22;1815;50.950;6.920;2023-06-10T01:32:20;21.80;72.50
3602;DHT22;1815;50.950;6.920;2023-06-10T01:34:48;21.70;72.80
3602;DHT22;1815;50.950;6.920;2023-06-10T01:37:18;21.70;72.80
3602;DHT22;1815;50.950;6.920;2023-06-10T01:39:46;21.60;73.50
3602;DHT22;1815;50.950;6.920;2023-06-10T01:42:12;21.60;74.10
3602;DHT22;1815;50.950;6.920;2023-06-10T01:44:41;21.60;74.60
3602;DHT22;1815;50.950;6.920;2023-06-10T01:47:08;21.50;75.50
3602;DHT22;1815;50.950;6.920;2023-06-10T01:49:34;21.50;75.80
3602;DHT22;1815;50.950;6.920;2023-06-10T01:52:00;21.40;76.20
3602;DHT22;1815;50.950;6.920;2023-06-10T01:54:26;21.40;76.90
3602;DHT22;1815;50.950;6.920;2023-06-10T01:56:52;21.40;77.50
3602;DHT22;1815;50.950;6.920;2023-06-10T01:59:18;21.30;77.90
3602;DHT22;1815;50.950;6.920;2023-06-10T02:01:43;21.30;78.50
3602;DHT22;1815;50.950;6.920;2023-06-10T02:04:09;21.30;79.10
3602;DHT22;1815;50.950;6.920;2023-06-10T02:06:35;21.30;79.70
3602;DHT22;1815;50.950;6.920;2023-06-10T02:09:03;21.20;80.20
3602;DHT22;1815;50.950;6.920;2023-06-10T02:11:29;21.20;80.80
3602;DHT22;1815;50.950;6.920;2023-06-10T02:13:54;21.20;81.40
3602;DHT22;1815;50.950;6.920;2023-06-10T02:16:20;21.10;81.90
3602;DHT22;1815;50.950;6.920;2023-06-10T02:18:46;21.10;82.60
3602;DHT22;1815;50.950;6.920;2023-06-10T02:21:14;21.00;83.30
3602;DHT22;1815;50.950;6.920;2023-06-10T02:23:40;21.00;83.80
3602;DHT22;1815;50.950;6.920;2023-06-10T02:26:06;20.90;84.20
3602;DHT22;1815;50.950;6.920;2023-06-10T02:28:31;20.90;84.80
3602;DHT22;1815;50.950;6.920;2023-06-10T02:30:58;20.80;85.40
3602;DHT22;1815;50.950;6.920;2023-06-10T02:33:27;20.80;86.00
3602;DHT22;1815;50.950;6.920;2023-06-10T02:35:53;20.70;86.70
3602;DHT22;1815;50.950;6.920;2023-06-10T02:38:19;20.70;87.40
3602;DHT22;1815;50.950;6.920;2023-06-10T02:40:45;20.70;87.90
3602;DHT22;1815;50.950;6.920;2023-06-10T02:43:12;20.60;88.40
3602;DHT22;1815;50.950;6.920;2023-06-10T02:45:38;20.60;89.10
3602;DHT22;1815;50.950;6.920;2023-06-10T02:48:04;20.50;89.50
3602;DHT22;1815;50.950;6.920;2023-06-10T02:50:31;20.50;90.00
3602;DHT22;1815;50.950;6.920;2023-06-10T02:53:18;20.50;90.30
3602;DHT22;1815;50.950;6.920;2023-06-10T02:55:49;20.40;90.50
3602;DHT22;1815;50.950;6.920;2023-06-10T02:58:17;20.40;90.70
3602;DHT22;1815;50.950;6.920;2023-06-10T03:00:43;20.40;91.00
3602;DHT22;1815;50.950;6.920;2023-06-10T03:03:11;20.30;91.30
3602;DHT22;1815;50.950;6.920;2023-06-10T03:05:45;20.30;91.50
3602;DHT22;1815;50.950;6.920;2023-06-10T03:08:11;20.30;91.80
3602;DHT22;1815;50.950;6.920;2023-06-10T03:10:40;20.20;92.00
3602;DHT22;1815;50.950;6.920;2023-06-10T03:13:06;20.20;92.20
3602;DHT22;1815;50.950;6.920;2023-06-10T03:15:32;20.20;92.50
3602;DHT22;1815;50.950;6.920;2023-06-10T03:18:04;20.20;92.80
3602;DHT22;1815;50.950;6.920;2023-06-10T03:20:32;20.10;93.00
3602;DHT22;1815;50.950;6.920;2023-06-10T03:23:04;20.10;93.30
3602;DHT22;1815;50.950;6.920;2023-06-10T03:25:33;20.10;93.60
3602;DHT22;1815;50.950;6.920;2023-06-10T03:27:58;20.10;93.90
3602;DHT22;1815;50.950;6.920;2023-06-10T03:30:24;20.10;94.10
3602;DHT22;1815;50.950;6.920;2023-06-10T03:32:50;20.00;94.30
3602;DHT22;1815;50.950;6.920;2023-06-10T03:35:18;20.00;94.50
3602;DHT22;1815;50.950;6.920;2023-06-10T03:37:44;20.00;95.20
3602;DHT22;1815;50.950;6.920;2023-06-10T03:40:10;20.00;95.10
3602;DHT22;1815;50.950;6.920;2023-06-10T03:42:39;20.00;95.40
3602;DHT22;1815;50.950;6.920;2023-06-10T03:45:07;20.00;95.70
3602;DHT22;1815;50.950;6.920;2023-06-10T03:47:36;20.00;95.90
3602;DHT22;1815;50.950;6.920;2023-06-10T03:50:05;20.00;96.10
3602;DHT22;1815;50.950;6.920;2023-06-10T03:52:31;20.00;96.30
3602;DHT22;1815;50.950;6.920;2023-06-10T03:54:58;20.00;96.50
3602;DHT22;1815;50.950;6.920;2023-06-10T03:57:23;20.00;96.70
3602;DHT22;1815;50.950;6.920;2023-06-10T03:59:49;20.10;97.00
3602;DHT22;1815;50.950;6.920;2023-06-10T04:02:15;20.10;97.20
3602;DHT22;1815;50.950;6.920;2023-06-10T04:04:43;20.10;97.50
3602;DHT22;1815;50.950;6.920;2023-06-10T04:07:08;20.10;97.70
3602;DHT22;1815;50.950;6.920;2023-06-10T04:09:34;20.10;98.00
3602;DHT22;1815;50.950;6.920;2023-06-10T04:12:01;20.20;98.20
3602;DHT22;1815;50.950;6.920;2023-06-10T04:14:28;20.20;98.50
3602;DHT22;1815;50.950;6.920;2023-06-10T04:16:54;20.20;98.60
3602;DHT22;1815;50.950;6.920;2023-06-10T04:19:20;20.20;98.80
3602;DHT22;1815;50.950;6.920;2023-06-10T04:21:47;20.30;99.00
3602;DHT22;1815;50.950;6.920;2023-06-10T04:24:13;20.30;99.20
3602;DHT22;1815;50.950;6.920;2023-06-10T04:26:38;20.30;99.40
3602;DHT22;1815;50.950;6.920;2023-06-10T04:29:04;20.50;99.90
3602;DHT22;1815;50.950;6.920;2023-06-10T04:31:30;20.70;99.90
3602;DHT22;1815;50.950;6.920;2023-06-10T04:33:58;20.90;99.90
3602;DHT22;1815;50.950;6.920;2023-06-10T04:36:24;21.00;99.90
3602;DHT22;1815;50.950;6.920;2023-06-10T04:38:50;21.20;99.90
3602;DHT22;1815;50.950;6.920;2023-06-10T04:41:18;21.30;99.90
3602;DHT22;1815;50.950;6.920;2023-06-10T04:43:44;21.50;99.90
3602;DHT22;1815;50.950;6.920;2023-06-10T04:46:10;21.70;99.90
3602;DHT22;1815;50.950;6.920;2023-06-10T04:48:36;21.80;99.90
3602;DHT22;1815;50.950;6.920;2023-06-10T04:51:03;21.90;99.90
3602;DHT22;1815;50.950;6.920;2023-06-10T04:53:30;22.10;99.90
3602;DHT22;1815;50.950;6.920;2023-06-10T04:55:56;22.20;99.90
3602;DHT22;1815;50.950;6.920;2023-06-10T04:58:23;22.30;99.90
3602;DHT22;1815;50.950;6.920;2023-06-10T05:00:49;22.50;99.90
3602;DHT22;1815;50.950;6.920;2023-06-10T05:03:15;22.60;99.90
3602;DHT22;1815;50.950;6.920;2023-06-10T05:05:40;22.80;99.90
3602;DHT22;1815;50.950;6.920;2023-06-10T05:08:06;22.90;99.90
3602;DHT22;1815;50.950;6.920;2023-06-10T05:10:32;23.10;99.90
3602;DHT22;1815;50.950;6.920;2023-06-10T05:12:59;23.20;99.90
3602;DHT22;1815;50.950;6.920;2023-06-10T05:15:25;23.50;99.90
3602;DHT22;1815;50.950;6.920;2023-06-10T05:17:51;23.70;99.90
3602;DHT22;1815;50.950;6.920;2023-06-10T05:20:17;24.00;99.90
3602;DHT22;1815;50.950;6.920;2023-06-10T05:22:43;24.30;99.90
3602;DHT22;1815;50.950;6.920;2023-06-10T05:25:10;24.60;99.70
3602;DHT22;1815;50.950;6.920;2023-06-10T05:27:36;24.80;99.00
3602;DHT22;1815;50.950;6.920;2023-06-10T05:30:02;24.90;98.30
3602;DHT22;1815;50.950;6.920;2023-06-10T05:32:29;25.10;98.00
3602;DHT22;1815;50.950;6.920;2023-06-10T05:34:54;25.10;97.40
3602;DHT22;1815;50.950;6.920;2023-06-10T05:37:20;25.20;97.00
3602;DHT22;1815;50.950;6.920;2023-06-10T05:39:46;25.30;96.60
3602;DHT22;1815;50.950;6.920;2023-06-10T05:42:12;25.40;96.70
3602;DHT22;1815;50.950;6.920;2023-06-10T05:44:37;25.50;95.70
3602;DHT22;1815;50.950;6.920;2023-06-10T05:47:03;25.60;95.30
3602;DHT22;1815;50.950;6.920;2023-06-10T05:49:29;25.80;95.10
3602;DHT22;1815;50.950;6.920;2023-06-10T05:51:55;25.80;94.80
3602;DHT22;1815;50.950;6.920;2023-06-10T05:54:22;25.90;94.80
3602;DHT22;1815;50.950;6.920;2023-06-10T05:56:48;26.40;95.50
3602;DHT22;1815;50.950;6.920;2023-06-10T05:59:14;27.10;95.90
3602;DHT22;1815;50.950;6.920;2023-06-10T06:01:40;27.90;95.60
3602;DHT22;1815;50.950;6.920;2023-06-10T06:04:06;28.70;95.20
3602;DHT22;1815;50.950;6.920;2023-06-10T06:06:31;29.60;94.80
3602;DHT22;1815;50.950;6.920;2023-06-10T06:09:00;30.60;94.50
3602;DHT22;1815;50.950;6.920;2023-06-10T06:11:26;31.50;92.80
3602;DHT22;1815;50.950;6.920;2023-06-10T06:13:52;32.50;91.70
3602;DHT22;1815;50.950;6.920;2023-06-10T06:16:18;33.30;89.80
3602;DHT22;1815;50.950;6.920;2023-06-10T06:18:44;34.00;85.30
3602;DHT22;1815;50.950;6.920;2023-06-10T06:21:09;34.30;74.50
3602;DHT22;1815;50.950;6.920;2023-06-10T06:23:35;34.60;69.90
3602;DHT22;1815;50.950;6.920;2023-06-10T06:26:01;34.80;65.00
3602;DHT22;1815;50.950;6.920;2023-06-10T06:28:27;35.00;61.00
3602;DHT22;1815;50.950;6.920;2023-06-10T06:30:55;35.00;57.00
3602;DHT22;1815;50.950;6.920;2023-06-10T06:33:21;35.20;58.40
3602;DHT22;1815;50.950;6.920;2023-06-10T06:35:47;35.50;56.60
3602;DHT22;1815;50.950;6.920;2023-06-10T06:38:12;35.80;56.70
3602;DHT22;1815;50.950;6.920;2023-06-10T06:40:38;36.30;56.30
3602;DHT22;1815;50.950;6.920;2023-06-10T06:43:04;36.80;55.60
3602;DHT22;1815;50.950;6.920;2023-06-10T06:45:39;37.20;53.40
3602;DHT22;1815;50.950;6.920;2023-06-10T06:48:05;37.50;50.80
3602;DHT22;1815;50.950;6.920;2023-06-10T06:50:30;37.60;50.00
3602;DHT22;1815;50.950;6.920;2023-06-10T06:52:56;37.70;49.40
3602;DHT22;1815;50.950;6.920;2023-06-10T06:55:22;37.70;48.40
3602;DHT22;1815;50.950;6.920;2023-06-10T06:57:47;37.90;48.30
3602;DHT22;1815;50.950;6.920;2023-06-10T07:00:13;37.90;47.30
3602;DHT22;1815;50.950;6.920;2023-06-10T07:02:39;37.70;45.90
3602;DHT22;1815;50.950;6.920;2023-06-10T07:05:07;37.90;46.40
3602;DHT22;1815;50.950;6.920;2023-06-10T07:07:34;38.10;45.70
3602;DHT22;1815;50.950;6.920;2023-06-10T07:10:00;38.30;45.40
3602;DHT22;1815;50.950;6.920;2023-06-10T07:12:26;38.50;45.30
3602;DHT22;1815;50.950;6.920;2023-06-10T07:14:52;38.70;44.70
3602;DHT22;1815;50.950;6.920;2023-06-10T07:17:18;38.80;44.80
3602;DHT22;1815;50.950;6.920;2023-06-10T07:19:44;39.30;43.90
3602;DHT22;1815;50.950;6.920;2023-06-10T07:22:10;39.60;43.20
3602;DHT22;1815;50.950;6.920;2023-06-10T07:24:36;39.70;42.20
3602;DHT22;1815;50.950;6.920;2023-06-10T07:27:08;39.70;40.90
3602;DHT22;1815;50.950;6.920;2023-06-10T07:29:34;39.40;39.00
3602;DHT22;1815;50.950;6.920;2023-06-10T07:32:02;39.20;39.20
3602;DHT22;1815;50.950;6.920;2023-06-10T07:34:28;39.10;39.30
3602;DHT22;1815;50.950;6.920;2023-06-10T07:36:54;38.80;39.20
3602;DHT22;1815;50.950;6.920;2023-06-10T07:39:20;38.70;39.80
3602;DHT22;1815;50.950;6.920;2023-06-10T07:41:46;39.00;40.30
3602;DHT22;1815;50.950;6.920;2023-06-10T07:44:12;39.10;39.70
3602;DHT22;1815;50.950;6.920;2023-06-10T07:46:38;39.20;39.70
3602;DHT22;1815;50.950;6.920;2023-06-10T07:49:03;39.30;39.90
3602;DHT22;1815;50.950;6.920;2023-06-10T07:51:29;39.70;39.60
3602;DHT22;1815;50.950;6.920;2023-06-10T07:53:55;40.00;39.70
3602;DHT22;1815;50.950;6.920;2023-06-10T07:56:20;40.50;39.60
3602;DHT22;1815;50.950;6.920;2023-06-10T07:58:47;40.90;39.00
3602;DHT22;1815;50.950;6.920;2023-06-10T08:01:12;41.30;38.80
3602;DHT22;1815;50.950;6.920;2023-06-10T08:03:38;41.60;38.30
3602;DHT22;1815;50.950;6.920;2023-06-10T08:06:04;42.00;37.70
3602;DHT22;1815;50.950;6.920;2023-06-10T08:08:31;42.20;36.50
3602;DHT22;1815;50.950;6.920;2023-06-10T08:10:57;42.30;36.40
3602;DHT22;1815;50.950;6.920;2023-06-10T08:13:22;42.60;37.00
3602;DHT22;1815;50.950;6.920;2023-06-10T08:15:48;42.80;36.10
3602;DHT22;1815;50.950;6.920;2023-06-10T08:18:16;42.70;35.00
3602;DHT22;1815;50.950;6.920;2023-06-10T08:20:41;42.60;34.70
3602;DHT22;1815;50.950;6.920;2023-06-10T08:23:07;42.70;34.90
3602;DHT22;1815;50.950;6.920;2023-06-10T08:25:33;43.00;34.90
3602;DHT22;1815;50.950;6.920;2023-06-10T08:27:59;43.30;35.00
3602;DHT22;1815;50.950;6.920;2023-06-10T08:30:24;43.60;34.80
3602;DHT22;1815;50.950;6.920;2023-06-10T08:32:50;43.90;34.30
3602;DHT22;1815;50.950;6.920;2023-06-10T08:35:17;44.10;33.80
3602;DHT22;1815;50.950;6.920;2023-06-10T08:37:43;44.30;33.70
3602;DHT22;1815;50.950;6.920;2023-06-10T08:40:09;44.50;33.30
3602;DHT22;1815;50.950;6.920;2023-06-10T08:43:07;44.60;32.90
3602;DHT22;1815;50.950;6.920;2023-06-10T08:45:35;44.80;32.50
3602;DHT22;1815;50.950;6.920;2023-06-10T08:48:05;45.00;32.60
3602;DHT22;1815;50.950;6.920;2023-06-10T08:50:36;45.20;31.90
3602;DHT22;1815;50.950;6.920;2023-06-10T08:53:05;45.00;30.90
3602;DHT22;1815;50.950;6.920;2023-06-10T08:55:33;44.70;31.10
3602;DHT22;1815;50.950;6.920;2023-06-10T08:58:01;44.70;31.10
3602;DHT22;1815;50.950;6.920;2023-06-10T09:00:29;44.60;31.50
3602;DHT22;1815;50.950;6.920;2023-06-10T09:02:58;44.70;30.80
3602;DHT22;1815;50.950;6.920;2023-06-10T09:05:24;44.80;30.70
3602;DHT22;1815;50.950;6.920;2023-06-10T09:07:52;44.50;30.00
3602;DHT22;1815;50.950;6.920;2023-06-10T09:10:18;44.20;30.20
3602;DHT22;1815;50.950;6.920;2023-06-10T09:12:44;44.30;30.70
3602;DHT22;1815;50.950;6.920;2023-06-10T09:15:10;44.50;30.60
3602;DHT22;1815;50.950;6.920;2023-06-10T09:17:38;44.60;30.90
3602;DHT22;1815;50.950;6.920;2023-06-10T09:20:06;44.90;30.70
3602;DHT22;1815;50.950;6.920;2023-06-10T09:22:33;45.10;30.40
3602;DHT22;1815;50.950;6.920;2023-06-10T09:25:16;45.30;30.60
3602;DHT22;1815;50.950;6.920;2023-06-10T09:27:51;45.70;30.30
3602;DHT22;1815;50.950;6.920;2023-06-10T09:30:33;45.70;29.60
3602;DHT22;1815;50.950;6.920;2023-06-10T09:33:10;45.70;29.60
3602;DHT22;1815;50.950;6.920;2023-06-10T09:35:36;45.30;28.80
3602;DHT22;1815;50.950;6.920;2023-06-10T09:38:01;44.50;28.80
3602;DHT22;1815;50.950;6.920;2023-06-10T09:40:28;44.30;29.50
3602;DHT22;1815;50.950;6.920;2023-06-10T09:42:58;44.20;29.30
3602;DHT22;1815;50.950;6.920;2023-06-10T09:45:31;44.00;29.40
3602;DHT22;1815;50.950;6.920;2023-06-10T09:48:00;44.20;29.80
3602;DHT22;1815;50.950;6.920;2023-06-10T09:50:26;44.50;30.00
3602;DHT22;1815;50.950;6.920;2023-06-10T09:52:53;44.60;29.50
3602;DHT22;1815;50.950;6.920;2023-06-10T09:55:18;44.50;29.00
3602;DHT22;1815;50.950;6.920;2023-06-10T09:57:44;44.30;28.70
3602;DHT22;1815;50.950;6.920;2023-06-10T10:00:14;44.00;28.90
3602;DHT22;1815;50.950;6.920;2023-06-10T10:02:48;43.90;29.20
3602;DHT22;1815;50.950;6.920;2023-06-10T10:05:16;44.00;29.30
3602;DHT22;1815;50.950;6.920;2023-06-10T10:07:43;44.30;29.70
3602;DHT22;1815;50.950;6.920;2023-06-10T10:10:09;44.50;29.30
3602;DHT22;1815;50.950;6.920;2023-06-10T10:12:37;44.70;28.90
3602;DHT22;1815;50.950;6.920;2023-06-10T10:15:08;44.60;28.80
3602;DHT22;1815;50.950;6.920;2023-06-10T10:17:37;44.60;28.90
3602;DHT22;1815;50.950;6.920;2023-06-10T10:20:05;44.60;28.70
3602;DHT22;1815;50.950;6.920;2023-06-10T10:22:39;44.20;28.10
3602;DHT22;1815;50.950;6.920;2023-06-10T10:25:16;43.90;28.60
3602;DHT22;1815;50.950;6.920;2023-06-10T10:30:10;44.20;29.60
3602;DHT22;1815;50.950;6.920;2023-06-10T10:33:08;44.50;29.40
3602;DHT22;1815;50.950;6.920;2023-06-10T10:35:36;44.80;29.50
3602;DHT22;1815;50.950;6.920;2023-06-10T10:38:02;45.00;29.00
3602;DHT22;1815;50.950;6.920;2023-06-10T10:40:29;44.90;28.30
3602;DHT22;1815;50.950;6.920;2023-06-10T10:42:56;44.50;28.00
3602;DHT22;1815;50.950;6.920;2023-06-10T10:45:23;44.40;28.60
3602;DHT22;1815;50.950;6.920;2023-06-10T10:47:53;44.50;28.60
3602;DHT22;1815;50.950;6.920;2023-06-10T10:50:21;44.50;28.40
3602;DHT22;1815;50.950;6.920;2023-06-10T10:53:00;44.30;27.50
3602;DHT22;1815;50.950;6.920;2023-06-10T10:55:27;43.70;27.40
3602;DHT22;1815;50.950;6.920;2023-06-10T10:58:07;43.10;27.30
3602;DHT22;1815;50.950;6.920;2023-06-10T11:00:45;42.60;27.90
3602;DHT22;1815;50.950;6.920;2023-06-10T11:03:15;42.40;28.10
3602;DHT22;1815;50.950;6.920;2023-06-10T11:05:45;42.10;28.40
3602;DHT22;1815;50.950;6.920;2023-06-10T11:08:15;41.70;27.90
3602;DHT22;1815;50.950;6.920;2023-06-10T11:10:53;41.20;27.50
3602;DHT22;1815;50.950;6.920;2023-06-10T11:13:21;40.50;27.10
3602;DHT22;1815;50.950;6.920;2023-06-10T11:15:50;40.00;27.80
3602;DHT22;1815;50.950;6.920;2023-06-10T11:18:26;39.70;27.60
3602;DHT22;1815;50.950;6.920;2023-06-10T11:20:56;39.30;27.70
3602;DHT22;1815;50.950;6.920;2023-06-10T11:28:40;38.90;28.30
3602;DHT22;1815;50.950;6.920;2023-06-10T11:31:06;38.80;28.00
3602;DHT22;1815;50.950;6.920;2023-06-10T11:33:32;38.70;28.00
3602;DHT22;1815;50.950;6.920;2023-06-10T11:35:58;38.40;27.70
3602;DHT22;1815;50.950;6.920;2023-06-10T11:38:25;38.10;27.90
3602;DHT22;1815;50.950;6.920;2023-06-10T11:40:51;37.90;28.10
3602;DHT22;1815;50.950;6.920;2023-06-10T11:43:17;37.70;28.30
3602;DHT22;1815;50.950;6.920;2023-06-10T11:45:44;37.60;28.50
3602;DHT22;1815;50.950;6.920;2023-06-10T11:48:10;37.40;28.40
3602;DHT22;1815;50.950;6.920;2023-06-10T11:50:36;37.10;28.30
3602;DHT22;1815;50.950;6.920;2023-06-10T11:53:03;36.80;28.30
3602;DHT22;1815;50.950;6.920;2023-06-10T11:55:46;36.50;28.50
3602;DHT22;1815;50.950;6.920;2023-06-10T11:58:20;36.30;28.60
3602;DHT22;1815;50.950;6.920;2023-06-10T12:00:51;36.10;28.60
3602;DHT22;1815;50.950;6.920;2023-06-10T12:03:19;35.90;28.80
3602;DHT22;1815;50.950;6.920;2023-06-10T12:05:58;35.70;28.80
3602;DHT22;1815;50.950;6.920;2023-06-10T12:08:25;35.50;29.20
3602;DHT22;1815;50.950;6.920;2023-06-10T12:10:51;35.30;29.10
3602;DHT22;1815;50.950;6.920;2023-06-10T12:13:16;35.30;29.20
3602;DHT22;1815;50.950;6.920;2023-06-10T12:15:44;35.20;29.40
3602;DHT22;1815;50.950;6.920;2023-06-10T12:18:23;35.20;29.90
3602;DHT22;1815;50.950;6.920;2023-06-10T12:20:49;35.30;30.40
3602;DHT22;1815;50.950;6.920;2023-06-10T12:23:17;35.30;30.40
3602;DHT22;1815;50.950;6.920;2023-06-10T12:25:53;35.30;30.40
3602;DHT22;1815;50.950;6.920;2023-06-10T12:28:23;35.20;30.80
3602;DHT22;1815;50.950;6.920;2023-06-10T12:30:50;35.20;30.70
3602;DHT22;1815;50.950;6.920;2023-06-10T12:33:17;35.10;31.00
3602;DHT22;1815;50.950;6.920;2023-06-10T12:35:51;35.10;31.20
3602;DHT22;1815;50.950;6.920;2023-06-10T12:38:24;35.10;31.30
3602;DHT22;1815;50.950;6.920;2023-06-10T12:40:53;35.10;31.50
3602;DHT22;1815;50.950;6.920;2023-06-10T12:43:20;35.10;31.20
3602;DHT22;1815;50.950;6.920;2023-06-10T12:45:46;35.20;31.20
3602;DHT22;1815;50.950;6.920;2023-06-10T12:50:43;35.10;30.80
3602;DHT22;1815;50.950;6.920;2023-06-10T12:53:10;35.00;30.60
3602;DHT22;1815;50.950;6.920;2023-06-10T12:55:37;34.80;30.50
3602;DHT22;1815;50.950;6.920;2023-06-10T12:58:03;34.60;30.30
3602;DHT22;1815;50.950;6.920;2023-06-10T13:00:29;34.40;30.20
3602;DHT22;1815;50.950;6.920;2023-06-10T13:03:00;34.20;30.50
3602;DHT22;1815;50.950;6.920;2023-06-10T13:05:28;34.10;30.70
3602;DHT22;1815;50.950;6.920;2023-06-10T13:07:54;33.90;30.60
3602;DHT22;1815;50.950;6.920;2023-06-10T13:10:21;33.90;30.70
3602;DHT22;1815;50.950;6.920;2023-06-10T13:12:47;33.80;30.40
3602;DHT22;1815;50.950;6.920;2023-06-10T13:15:13;33.90;30.40
3602;DHT22;1815;50.950;6.920;2023-06-10T13:17:40;33.80;30.00
3602;DHT22;1815;50.950;6.920;2023-06-10T13:20:07;33.90;30.00
3602;DHT22;1815;50.950;6.920;2023-06-10T13:22:33;33.90;30.00
3602;DHT22;1815;50.950;6.920;2023-06-10T13:25:05;34.00;30.20
3602;DHT22;1815;50.950;6.920;2023-06-10T13:27:36;34.10;30.00
3602;DHT22;1815;50.950;6.920;2023-06-10T13:30:06;34.20;30.00
3602;DHT22;1815;50.950;6.920;2023-06-10T13:32:32;34.30;30.00
3602;DHT22;1815;50.950;6.920;2023-06-10T13:34:57;34.30;30.00
3602;DHT22;1815;50.950;6.920;2023-06-10T13:37:23;34.40;29.90
3602;DHT22;1815;50.950;6.920;2023-06-10T13:39:49;34.40;29.60
3602;DHT22;1815;50.950;6.920;2023-06-10T13:42:19;34.40;29.70
3602;DHT22;1815;50.950;6.920;2023-06-10T13:44:46;34.40;29.80
3602;DHT22;1815;50.950;6.920;2023-06-10T13:47:13;34.30;29.70
3602;DHT22;1815;50.950;6.920;2023-06-10T13:49:39;34.20;29.80
3602;DHT22;1815;50.950;6.920;2023-06-10T13:52:05;34.10;29.90
3602;DHT22;1815;50.950;6.920;2023-06-10T13:54:31;34.00;30.00
3602;DHT22;1815;50.950;6.920;2023-06-10T13:56:57;34.00;30.00
3602;DHT22;1815;50.950;6.920;2023-06-10T13:59:23;34.00;30.00
3602;DHT22;1815;50.950;6.920;2023-06-10T14:01:48;33.80;30.00
3602;DHT22;1815;50.950;6.920;2023-06-10T14:04:14;33.60;29.90
3602;DHT22;1815;50.950;6.920;2023-06-10T14:06:40;33.40;29.80
3602;DHT22;1815;50.950;6.920;2023-06-10T14:09:06;33.20;30.00
3602;DHT22;1815;50.950;6.920;2023-06-10T14:11:31;33.20;30.00
3602;DHT22;1815;50.950;6.920;2023-06-10T14:13:57;33.10;30.10
3602;DHT22;1815;50.950;6.920;2023-06-10T14:16:26;33.00;30.30
3602;DHT22;1815;50.950;6.920;2023-06-10T14:18:52;33.00;30.40
3602;DHT22;1815;50.950;6.920;2023-06-10T14:21:18;33.00;30.30
3602;DHT22;1815;50.950;6.920;2023-06-10T14:23:44;32.90;30.10
3602;DHT22;1815;50.950;6.920;2023-06-10T14:26:11;32.90;30.30
3602;DHT22;1815;50.950;6.920;2023-06-10T14:28:37;33.00;30.40
3602;DHT22;1815;50.950;6.920;2023-06-10T14:31:02;33.10;30.60
3602;DHT22;1815;50.950;6.920;2023-06-10T14:33:28;33.20;30.70
3602;DHT22;1815;50.950;6.920;2023-06-10T14:35:54;33.30;30.70
3602;DHT22;1815;50.950;6.920;2023-06-10T14:38:20;33.40;30.60
3602;DHT22;1815;50.950;6.920;2023-06-10T14:40:45;33.40;30.60
3602;DHT22;1815;50.950;6.920;2023-06-10T14:43:11;33.30;30.60
3602;DHT22;1815;50.950;6.920;2023-06-10T14:45:41;33.40;30.70
3602;DHT22;1815;50.950;6.920;2023-06-10T14:48:07;33.50;30.70
3602;DHT22;1815;50.950;6.920;2023-06-10T14:50:37;33.40;30.60
3602;DHT22;1815;50.950;6.920;2023-06-10T14:53:03;33.30;30.40
3602;DHT22;1815;50.950;6.920;2023-06-10T14:55:29;33.20;31.30
3602;DHT22;1815;50.950;6.920;2023-06-10T14:57:55;33.20;30.60
3602;DHT22;1815;50.950;6.920;2023-06-10T15:00:23;33.20;30.80
3602;DHT22;1815;50.950;6.920;2023-06-10T15:02:50;33.20;31.10
3602;DHT22;1815;50.950;6.920;2023-06-10T15:05:16;33.20;31.10
3602;DHT22;1815;50.950;6.920;2023-06-10T15:07:43;33.30;30.90
3602;DHT22;1815;50.950;6.920;2023-06-10T15:10:09;33.30;30.90
3602;DHT22;1815;50.950;6.920;2023-06-10T15:12:35;33.30;30.90
3602;DHT22;1815;50.950;6.920;2023-06-10T15:15:02;33.20;31.00
3602;DHT22;1815;50.950;6.920;2023-06-10T15:17:28;33.20;31.00
3602;DHT22;1815;50.950;6.920;2023-06-10T15:19:54;33.20;30.90
3602;DHT22;1815;50.950;6.920;2023-06-10T15:22:20;33.10;30.80
3602;DHT22;1815;50.950;6.920;2023-06-10T15:24:46;33.10;31.00
3602;DHT22;1815;50.950;6.920;2023-06-10T15:27:11;33.10;31.00
3602;DHT22;1815;50.950;6.920;2023-06-10T15:29:37;33.10;31.10
3602;DHT22;1815;50.950;6.920;2023-06-10T15:32:03;33.10;31.30
3602;DHT22;1815;50.950;6.920;2023-06-10T15:34:29;33.10;31.50
3602;DHT22;1815;50.950;6.920;2023-06-10T15:36:54;33.10;31.60
3602;DHT22;1815;50.950;6.920;2023-06-10T15:39:20;33.10;31.80
3602;DHT22;1815;50.950;6.920;2023-06-10T15:41:46;33.20;31.90
3602;DHT22;1815;50.950;6.920;2023-06-10T15:44:12;33.30;32.00
3602;DHT22;1815;50.950;6.920;2023-06-10T15:46:37;33.40;32.20
3602;DHT22;1815;50.950;6.920;2023-06-10T15:49:03;33.40;32.30
3602;DHT22;1815;50.950;6.920;2023-06-10T15:51:29;33.50;32.20
3602;DHT22;1815;50.950;6.920;2023-06-10T15:53:55;33.50;31.90
3602;DHT22;1815;50.950;6.920;2023-06-10T15:56:21;33.50;31.70
3602;DHT22;1815;50.950;6.920;2023-06-10T15:58:47;33.50;31.50
3602;DHT22;1815;50.950;6.920;2023-06-10T16:01:13;33.30;31.30
3602;DHT22;1815;50.950;6.920;2023-06-10T16:03:40;33.20;31.50
3602;DHT22;1815;50.950;6.920;2023-06-10T16:06:06;33.10;31.30
3602;DHT22;1815;50.950;6.920;2023-06-10T16:08:32;32.90;31.30
3602;DHT22;1815;50.950;6.920;2023-06-10T16:10:58;32.80;31.40
3602;DHT22;1815;50.950;6.920;2023-06-10T16:13:24;32.70;31.50
3602;DHT22;1815;50.950;6.920;2023-06-10T16:15:50;32.70;31.40